createdAt,value
2018-06-23T00:01:00.306Z,63.60
2018-06-23T00:03:28.387Z,62.80
2018-06-23T00:05:56.494Z,62.00
2018-06-23T00:08:25.374Z,61.50
2018-06-23T00:10:53.967Z,62.70
2018-06-23T00:13:22.449Z,63.50
2018-06-23T00:15:51.334Z,62.30
2018-06-23T00:18:19.444Z,61.80
2018-06-23T00:20:47.545Z,64.70
2018-06-23T00:23:15.963Z,64.60
2018-06-23T00:25:44.179Z,65.00
2018-06-23T00:28:12.289Z,64.00
2018-06-23T00:30:40.423Z,64.70
2018-06-23T00:33:08.533Z,64.50
2018-06-23T00:35:37.550Z,63.80
2018-06-23T00:38:05.655Z,63.40
2018-06-23T00:40:33.827Z,62.30
2018-06-23T00:43:01.952Z,62.70
2018-06-23T00:45:30.187Z,61.70
2018-06-23T00:47:58.299Z,63.60
2018-06-23T00:50:26.422Z,63.40
2018-06-23T00:52:54.545Z,65.40
2018-06-23T00:55:23.504Z,67.60
2018-06-23T00:57:51.615Z,66.90
2018-06-23T01:00:19.731Z,66.70
2018-06-23T01:02:47.836Z,66.20
2018-06-23T01:05:16.011Z,65.00
2018-06-23T01:07:44.112Z,65.70
2018-06-23T01:10:13.138Z,67.80
2018-06-23T01:12:42.589Z,68.40
2018-06-23T01:15:13.234Z,67.60
2018-06-23T01:17:42.088Z,67.50
2018-06-23T01:20:11.105Z,67.10
2018-06-23T01:22:40.422Z,68.50
2018-06-23T01:25:09.028Z,68.50
2018-06-23T01:27:40.698Z,67.40
2018-06-23T01:30:10.134Z,65.30
2018-06-23T01:32:39.418Z,65.00
2018-06-23T01:35:08.597Z,66.90
2018-06-23T01:37:37.467Z,68.10
2018-06-23T01:40:05.582Z,69.00
2018-06-23T01:42:34.480Z,68.10
2018-06-23T01:45:04.579Z,69.10
2018-06-23T01:47:32.711Z,70.40
2018-06-23T01:50:00.820Z,70.70
2018-06-23T01:52:28.929Z,69.60
2018-06-23T01:54:57.114Z,70.00
2018-06-23T01:57:25.996Z,69.90
2018-06-23T01:59:54.104Z,69.70
2018-06-23T02:02:22.427Z,69.90
2018-06-23T02:04:50.613Z,69.90
2018-06-23T02:07:18.716Z,69.50
2018-06-23T02:09:46.818Z,67.70
2018-06-23T02:12:14.913Z,67.10
2018-06-23T02:14:43.103Z,67.30
2018-06-23T02:17:31.337Z,67.90
2018-06-23T02:20:19.183Z,70.00
2018-06-23T02:23:04.903Z,70.50
2018-06-23T02:25:50.868Z,70.80
2018-06-23T02:28:37.671Z,69.50
2018-06-23T02:31:05.834Z,70.60
2018-06-23T02:33:33.944Z,69.60
2018-06-23T02:36:03.237Z,70.80
2018-06-23T02:38:32.106Z,68.00
2018-06-23T02:41:00.241Z,67.40
2018-06-23T02:43:28.338Z,65.20
2018-06-23T02:45:56.473Z,64.30
2018-06-23T02:48:24.583Z,66.60
2018-06-23T02:50:52.704Z,68.10
2018-06-23T02:53:21.647Z,70.60
2018-06-23T02:55:50.124Z,70.60
2018-06-23T02:58:18.206Z,71.30
2018-06-23T03:00:46.373Z,70.60
2018-06-23T03:03:14.487Z,69.40
2018-06-23T03:05:43.359Z,69.60
2018-06-23T03:08:11.558Z,69.50
2018-06-23T03:10:40.425Z,70.50
2018-06-23T03:13:08.774Z,70.50
2018-06-23T03:15:41.319Z,71.30
2018-06-23T03:18:09.546Z,71.80
2018-06-23T03:20:38.622Z,72.60
2018-06-23T03:23:06.729Z,72.70
2018-06-23T03:25:38.272Z,73.20
2018-06-23T03:28:06.367Z,75.60
2018-06-23T03:30:34.962Z,71.90
2018-06-23T03:33:03.816Z,72.00
2018-06-23T03:35:31.967Z,68.60
2018-06-23T03:38:00.065Z,67.90
2018-06-23T03:40:28.216Z,68.40
2018-06-23T03:42:56.320Z,72.10
2018-06-23T03:45:24.532Z,71.30
2018-06-23T03:47:52.633Z,70.70
2018-06-23T03:50:20.744Z,72.00
2018-06-23T03:52:49.100Z,72.70
2018-06-23T03:55:18.197Z,72.70
2018-06-23T03:57:47.276Z,71.10
2018-06-23T04:00:15.400Z,70.90
2018-06-23T04:02:43.515Z,69.80
2018-06-23T04:05:11.773Z,67.80
2018-06-23T04:07:39.871Z,66.80
2018-06-23T04:10:07.963Z,64.80
2018-06-23T04:12:36.332Z,65.60
2018-06-23T04:15:04.422Z,66.70
2018-06-23T04:17:32.588Z,66.60
2018-06-23T04:20:00.712Z,63.60
2018-06-23T04:22:28.941Z,62.80
2018-06-23T04:24:57.719Z,63.70
2018-06-23T04:27:27.347Z,63.30
2018-06-23T04:29:55.460Z,64.70
2018-06-23T04:32:23.567Z,65.70
2018-06-23T04:34:51.926Z,64.70
2018-06-23T04:37:20.026Z,64.50
2018-06-23T04:39:48.136Z,61.90
2018-06-23T04:42:16.241Z,61.70
2018-06-23T04:44:44.393Z,60.70
2018-06-23T04:47:13.323Z,63.10
2018-06-23T04:49:41.525Z,63.20
2018-06-23T04:52:09.636Z,63.30
2018-06-23T04:54:37.850Z,60.40
2018-06-23T04:57:05.980Z,58.70
2018-06-23T04:59:34.076Z,56.70
2018-06-23T05:02:02.182Z,56.80
2018-06-23T05:04:30.348Z,57.10
2018-06-23T05:06:58.485Z,56.80
2018-06-23T05:09:26.641Z,56.90
2018-06-23T05:11:55.644Z,56.50
2018-06-23T05:14:23.931Z,56.50
2018-06-23T05:16:52.040Z,56.40
2018-06-23T05:19:20.157Z,57.70
2018-06-23T05:21:48.267Z,58.20
2018-06-23T05:24:21.070Z,57.00
2018-06-23T05:26:50.023Z,57.00
2018-06-23T05:29:22.748Z,55.70
2018-06-23T05:31:50.865Z,55.90
2018-06-23T05:34:19.101Z,56.40
2018-06-23T05:36:48.126Z,56.80
2018-06-23T05:39:16.248Z,56.20
2018-06-23T05:41:44.383Z,56.20
2018-06-23T05:44:16.547Z,56.90
2018-06-23T05:46:44.780Z,57.30
2018-06-23T05:49:12.909Z,57.20
2018-06-23T05:51:41.754Z,54.30
2018-06-23T05:54:10.022Z,54.30
2018-06-23T05:56:38.127Z,54.90
2018-06-23T05:59:06.236Z,53.60
2018-06-23T06:01:35.345Z,53.00
2018-06-23T06:04:03.654Z,53.80
2018-06-23T06:06:31.757Z,52.80
2018-06-23T06:08:59.863Z,53.30
2018-06-23T06:11:27.984Z,51.90
2018-06-23T06:13:56.850Z,52.30
2018-06-23T06:16:25.676Z,51.70
2018-06-23T06:18:54.537Z,51.50
2018-06-23T06:21:22.707Z,51.00
2018-06-23T06:23:51.056Z,48.20
2018-06-23T06:26:19.114Z,48.30
2018-06-23T06:28:47.432Z,47.80
2018-06-23T06:31:15.623Z,47.60
2018-06-23T06:33:43.928Z,47.60
2018-06-23T06:36:12.409Z,47.30
2018-06-23T06:38:40.650Z,47.50
2018-06-23T06:41:08.774Z,47.00
2018-06-23T06:43:36.903Z,47.60
2018-06-23T06:46:05.799Z,47.60
2018-06-23T06:48:34.587Z,46.80
2018-06-23T06:51:03.266Z,46.40
2018-06-23T06:53:32.785Z,45.60
2018-06-23T06:56:00.958Z,43.50
2018-06-23T06:58:29.077Z,43.90
2018-06-23T07:00:57.191Z,45.20
2018-06-23T07:03:26.293Z,44.40
2018-06-23T07:05:54.358Z,43.20
2018-06-23T07:08:22.529Z,40.90
2018-06-23T07:10:51.419Z,43.10
2018-06-23T07:13:22.460Z,41.60
2018-06-23T07:15:50.577Z,39.80
2018-06-23T07:18:18.699Z,40.50
2018-06-23T07:20:46.816Z,41.40
2018-06-23T07:23:14.941Z,39.70
2018-06-23T07:25:43.063Z,38.10
2018-06-23T07:28:11.228Z,37.50
2018-06-23T07:30:40.243Z,35.90
2018-06-23T07:33:08.361Z,37.00
2018-06-23T07:35:37.360Z,35.40
2018-06-23T07:38:05.582Z,34.70
2018-06-23T07:40:33.711Z,32.20
2018-06-23T07:43:01.804Z,32.00
2018-06-23T07:45:30.039Z,32.20
2018-06-23T07:47:58.164Z,29.70
2018-06-23T07:50:26.282Z,30.50
2018-06-23T07:52:54.402Z,28.80
2018-06-23T07:55:22.513Z,28.10
2018-06-23T07:57:51.401Z,27.20
2018-06-23T08:00:19.509Z,27.30
2018-06-23T08:02:48.104Z,28.10
2018-06-23T08:05:16.271Z,28.40
2018-06-23T08:07:46.813Z,26.60
2018-06-23T08:10:14.980Z,26.20
2018-06-23T08:12:43.815Z,26.10
2018-06-23T08:18:12.990Z,28.80
2018-06-23T08:20:41.603Z,29.50
2018-06-23T08:23:09.804Z,28.90
2018-06-23T08:25:37.923Z,27.10
2018-06-23T08:28:07.138Z,28.70
2018-06-23T08:30:35.269Z,28.70
2018-06-23T08:35:35.764Z,28.80
2018-06-23T08:38:03.882Z,28.00
2018-06-23T08:40:31.999Z,27.60
2018-06-23T08:43:00.557Z,26.70
2018-06-23T08:45:28.663Z,26.00
2018-06-23T08:47:56.793Z,26.70
2018-06-23T08:50:24.904Z,26.50
2018-06-23T08:52:53.054Z,26.30
2018-06-23T08:55:22.034Z,27.20
2018-06-23T08:57:50.259Z,26.30
2018-06-23T09:00:18.819Z,25.20
2018-06-23T09:02:47.029Z,23.40
2018-06-23T09:05:15.420Z,23.10
2018-06-23T09:07:44.991Z,23.90
2018-06-23T09:10:13.123Z,24.60
2018-06-23T09:12:41.956Z,23.70
2018-06-23T09:15:11.963Z,22.30
2018-06-23T09:17:40.898Z,22.50
2018-06-23T09:20:09.075Z,22.00
2018-06-23T09:22:37.200Z,22.90
2018-06-23T09:25:05.355Z,21.70
2018-06-23T09:27:33.463Z,21.20
2018-06-23T09:30:01.588Z,21.60
2018-06-23T09:32:29.733Z,21.40
2018-06-23T09:34:59.410Z,21.80
2018-06-23T09:37:28.304Z,21.60
2018-06-23T09:39:56.452Z,20.80
2018-06-23T09:42:24.603Z,19.70
2018-06-23T09:44:53.086Z,18.10
2018-06-23T09:47:22.495Z,18.30
2018-06-23T09:49:50.658Z,19.20
2018-06-23T09:52:18.794Z,17.80
2018-06-23T09:54:48.380Z,16.40
2018-06-23T09:57:17.676Z,16.90
2018-06-23T09:59:47.458Z,17.80
2018-06-23T10:02:16.759Z,18.00
2018-06-23T10:04:45.156Z,18.50
2018-06-23T10:07:14.070Z,16.90
2018-06-23T10:09:42.290Z,18.00
2018-06-23T10:12:12.367Z,18.30
2018-06-23T10:14:41.544Z,18.40
2018-06-23T10:17:09.684Z,17.40
2018-06-23T10:19:37.787Z,16.70
2018-06-23T10:22:05.942Z,17.50
2018-06-23T10:24:37.332Z,17.50
2018-06-23T10:27:05.826Z,18.90
2018-06-23T10:29:34.038Z,16.50
2018-06-23T10:32:02.199Z,16.60
2018-06-23T10:34:30.432Z,18.40
2018-06-23T10:36:59.308Z,19.30
2018-06-23T10:39:27.432Z,17.60
2018-06-23T10:41:55.581Z,18.70
2018-06-23T10:44:24.235Z,18.50
2018-06-23T10:46:52.371Z,18.40
2018-06-23T10:49:20.490Z,17.10
2018-06-23T10:51:48.832Z,17.50
2018-06-23T10:54:18.004Z,17.70
2018-06-23T10:56:46.116Z,19.70
2018-06-23T10:59:15.000Z,19.80
2018-06-23T11:01:43.117Z,18.90
2018-06-23T11:04:13.302Z,20.20
2018-06-23T11:06:44.598Z,20.50
2018-06-23T11:09:14.040Z,21.40
2018-06-23T11:11:43.670Z,21.30
2018-06-23T11:14:11.854Z,18.70
2018-06-23T11:16:40.708Z,17.20
2018-06-23T11:19:08.807Z,17.90
2018-06-23T11:21:37.758Z,17.40
2018-06-23T11:24:06.011Z,16.90
2018-06-23T11:26:34.123Z,16.90
2018-06-23T11:29:02.246Z,17.70
2018-06-23T11:31:31.121Z,17.50
2018-06-23T11:34:00.287Z,17.10
2018-06-23T11:36:30.109Z,16.90
2018-06-23T11:38:59.741Z,17.60
2018-06-23T11:41:27.875Z,17.90
2018-06-23T11:43:56.059Z,17.00
2018-06-23T11:46:25.155Z,17.00
2018-06-23T11:48:54.179Z,17.00
2018-06-23T11:51:22.467Z,17.00
2018-06-23T11:53:52.042Z,17.40
2018-06-23T11:58:50.109Z,16.90
2018-06-23T12:01:18.983Z,15.60
2018-06-23T12:03:47.407Z,17.00
2018-06-23T12:06:16.607Z,16.90
2018-06-23T12:08:45.512Z,17.50
2018-06-23T12:11:13.632Z,17.60
2018-06-23T12:13:43.989Z,19.20
2018-06-23T12:16:12.505Z,16.80
2018-06-23T12:18:40.603Z,15.70
2018-06-23T12:21:09.569Z,14.80
2018-06-23T12:23:37.700Z,15.80
2018-06-23T12:26:06.652Z,16.40
2018-06-23T12:28:34.765Z,16.40
2018-06-23T12:31:03.678Z,17.60
2018-06-23T12:33:32.557Z,16.30
2018-06-23T12:36:01.463Z,15.50
2018-06-23T12:38:32.581Z,15.00
2018-06-23T12:41:00.689Z,15.20
2018-06-23T12:43:28.795Z,16.50
2018-06-23T12:45:57.303Z,15.80
2018-06-23T12:48:25.467Z,14.50
2018-06-23T12:50:53.545Z,13.10
2018-06-23T12:53:21.655Z,14.90
2018-06-23T12:55:49.978Z,14.60
2018-06-23T12:58:18.105Z,15.80
2018-06-23T13:00:46.256Z,14.20
2018-06-23T13:03:14.936Z,13.90
2018-06-23T13:05:43.047Z,14.10
2018-06-23T13:08:11.177Z,13.90
2018-06-23T13:10:40.093Z,13.00
2018-06-23T13:13:08.213Z,13.80
2018-06-23T13:15:36.461Z,14.20
2018-06-23T13:18:04.589Z,11.10
2018-06-23T13:20:35.191Z,13.50
2018-06-23T13:23:03.307Z,11.90
2018-06-23T13:25:31.549Z,12.20
2018-06-23T13:27:59.681Z,11.40
2018-06-23T13:30:29.084Z,11.20
2018-06-23T13:32:57.940Z,10.10
2018-06-23T13:35:31.310Z,9.30
2018-06-23T13:37:59.534Z,7.60
2018-06-23T13:40:32.082Z,5.70
2018-06-23T13:43:01.088Z,4.10
2018-06-23T13:45:30.062Z,3.30
2018-06-23T13:48:00.429Z,2.80
2018-06-23T13:50:28.538Z,1.90
2018-06-23T13:52:57.425Z,1.70
2018-06-23T13:55:25.878Z,1.80
2018-06-23T13:57:55.112Z,3.20
2018-06-23T14:00:23.391Z,1.80
2018-06-23T14:02:51.495Z,1.00
2018-06-23T14:05:19.768Z,1.00
2018-06-23T14:07:47.848Z,1.00
2018-06-23T14:10:15.939Z,1.00
2018-06-23T14:12:44.057Z,1.00
2018-06-23T14:15:12.277Z,1.00
2018-06-23T14:17:40.404Z,1.00
2018-06-23T14:20:08.493Z,1.00
2018-06-23T14:22:36.594Z,1.00
2018-06-23T14:25:05.542Z,1.00
2018-06-23T14:27:33.683Z,1.00
2018-06-23T14:30:01.784Z,1.00
2018-06-23T14:32:30.114Z,1.60
2018-06-23T14:34:58.278Z,1.00
2018-06-23T14:37:26.759Z,1.00
2018-06-23T14:39:55.649Z,1.90
2018-06-23T14:42:23.778Z,1.20
2018-06-23T14:44:52.677Z,1.00
2018-06-23T14:47:22.182Z,1.00
2018-06-23T14:49:51.153Z,1.00
2018-06-23T14:52:19.263Z,1.00
2018-06-23T14:54:47.373Z,1.00
2018-06-23T14:57:16.253Z,1.00
2018-06-23T14:59:46.020Z,1.00
2018-06-23T15:02:14.133Z,1.00
2018-06-23T15:04:42.273Z,1.00
2018-06-23T15:07:11.292Z,1.00
2018-06-23T15:09:56.068Z,1.00
2018-06-23T15:12:47.512Z,1.00
2018-06-23T15:15:16.571Z,1.00
2018-06-23T15:17:44.647Z,1.00
2018-06-23T15:20:13.174Z,1.00
2018-06-23T15:22:42.814Z,1.00
2018-06-23T15:25:10.929Z,1.00
2018-06-23T15:27:39.045Z,1.00
2018-06-23T15:30:07.972Z,1.00
2018-06-23T15:32:36.112Z,1.00
2018-06-23T15:35:04.230Z,1.00
2018-06-23T15:37:33.140Z,1.00
2018-06-23T15:40:01.524Z,1.00
2018-06-23T15:42:30.375Z,1.00
2018-06-23T15:44:58.540Z,1.00
2018-06-23T15:47:27.735Z,1.00
2018-06-23T15:49:55.814Z,1.00
2018-06-23T15:52:23.919Z,1.00
2018-06-23T15:54:52.953Z,1.00
2018-06-23T15:57:21.057Z,1.00
2018-06-23T15:59:49.172Z,1.00
2018-06-23T16:02:18.164Z,1.00
2018-06-23T16:04:46.391Z,1.00
2018-06-23T16:07:14.496Z,1.00
2018-06-23T16:09:43.362Z,1.00
2018-06-23T16:12:11.476Z,1.00
2018-06-23T16:14:50.499Z,1.00
2018-06-23T16:17:20.727Z,1.00
2018-06-23T16:19:48.813Z,1.00
2018-06-23T16:22:17.121Z,1.00
2018-06-23T16:24:45.895Z,1.00
2018-06-23T16:27:14.012Z,1.00
2018-06-23T16:29:42.947Z,1.00
2018-06-23T16:32:11.121Z,1.00
2018-06-23T16:34:39.272Z,1.00
2018-06-23T16:37:08.125Z,1.00
2018-06-23T16:39:36.237Z,1.00
2018-06-23T16:42:04.361Z,1.00
2018-06-23T16:44:32.533Z,1.00
2018-06-23T16:47:00.653Z,1.00
2018-06-23T16:49:28.745Z,1.00
2018-06-23T16:51:56.836Z,1.00
2018-06-23T16:54:25.015Z,1.00
2018-06-23T16:56:53.133Z,1.00
2018-06-23T16:59:21.307Z,1.00
2018-06-23T17:01:50.184Z,1.00
2018-06-23T17:04:20.214Z,1.00
2018-06-23T17:06:48.295Z,1.00
2018-06-23T17:09:16.402Z,1.00
2018-06-23T17:11:44.516Z,1.00
2018-06-23T17:14:12.668Z,1.00
2018-06-23T17:16:40.777Z,1.00
2018-06-23T17:19:08.891Z,1.00
2018-06-23T17:21:37.008Z,1.80
2018-06-23T17:24:05.172Z,3.10
2018-06-23T17:26:33.278Z,4.20
2018-06-23T17:29:01.384Z,4.90
2018-06-23T17:31:30.221Z,5.30
2018-06-23T17:34:04.289Z,5.90
2018-06-23T17:36:32.411Z,6.50
2018-06-23T17:39:01.414Z,8.80
2018-06-23T17:41:29.546Z,7.40
2018-06-23T17:43:58.505Z,8.10
2018-06-23T17:46:26.627Z,8.80
2018-06-23T17:48:57.115Z,9.70
2018-06-23T17:51:25.363Z,9.70
2018-06-23T17:53:54.293Z,8.90
2018-06-23T17:56:22.431Z,9.50
2018-06-23T17:58:50.663Z,10.00
2018-06-23T18:01:18.924Z,10.30
2018-06-23T18:03:47.034Z,10.70
2018-06-23T18:06:15.934Z,12.60
2018-06-23T18:08:44.023Z,12.20
2018-06-23T18:11:13.911Z,12.20
2018-06-23T18:13:45.660Z,12.90
2018-06-23T18:16:13.910Z,13.10
2018-06-23T18:18:42.028Z,13.80
2018-06-23T18:21:10.150Z,14.20
2018-06-23T18:23:38.348Z,14.30
2018-06-23T18:26:06.475Z,14.90
2018-06-23T18:28:34.665Z,15.80
2018-06-23T18:31:03.205Z,15.30
2018-06-23T18:33:31.306Z,16.20
2018-06-23T18:36:00.347Z,17.00
2018-06-23T18:38:28.469Z,16.90
2018-06-23T18:40:56.641Z,17.70
2018-06-23T18:43:24.768Z,18.00
2018-06-23T18:45:53.133Z,18.50
2018-06-23T18:48:21.259Z,18.60
2018-06-23T18:50:50.328Z,18.90
2018-06-23T18:53:19.199Z,19.60
2018-06-23T18:55:47.312Z,19.50
2018-06-23T18:58:15.442Z,20.20
2018-06-23T19:00:44.483Z,20.50
2018-06-23T19:03:12.410Z,20.70
2018-06-23T19:05:40.520Z,21.10
2018-06-23T19:08:08.646Z,22.00
2018-06-23T19:10:36.797Z,22.00
2018-06-23T19:13:04.919Z,22.00
2018-06-23T19:15:33.155Z,22.00
2018-06-23T19:18:01.846Z,22.20
2018-06-23T19:20:29.961Z,22.90
2018-06-23T19:22:58.223Z,23.10
2018-06-23T19:25:29.977Z,22.70
2018-06-23T19:27:59.382Z,22.90
2018-06-23T19:30:27.512Z,23.10
2018-06-23T19:32:55.630Z,23.40
2018-06-23T19:35:24.459Z,23.80
2018-06-23T19:37:54.093Z,24.60
2018-06-23T19:40:22.211Z,24.20
2018-06-23T19:42:51.088Z,24.80
2018-06-23T19:45:19.254Z,24.20
2018-06-23T19:47:48.228Z,24.60
2018-06-23T19:50:16.364Z,24.50
2018-06-23T19:52:44.878Z,24.30
2018-06-23T19:55:13.990Z,24.40
2018-06-23T19:57:42.120Z,24.60
2018-06-23T20:00:10.217Z,25.20
2018-06-23T20:02:38.348Z,25.10
2018-06-23T20:05:11.186Z,25.80
2018-06-23T20:07:40.368Z,25.20
2018-06-23T20:10:08.922Z,25.70
2018-06-23T20:12:37.044Z,26.40
2018-06-23T20:15:05.163Z,25.80
2018-06-23T20:17:33.657Z,26.20
2018-06-23T20:20:01.768Z,26.40
2018-06-23T20:22:29.900Z,26.40
2018-06-23T20:24:58.014Z,27.00
2018-06-23T20:27:26.963Z,27.00
2018-06-23T20:29:55.075Z,27.10
2018-06-23T20:32:24.068Z,26.70
2018-06-23T20:34:52.148Z,26.80
2018-06-23T20:37:20.282Z,27.00
2018-06-23T20:39:48.417Z,28.70
2018-06-23T20:42:17.296Z,29.80
2018-06-23T20:44:45.456Z,30.00
2018-06-23T20:47:13.615Z,30.60
2018-06-23T20:49:41.721Z,31.50
2018-06-23T20:52:09.834Z,32.70
2018-06-23T20:54:40.018Z,28.70
2018-06-23T20:57:08.144Z,28.10
2018-06-23T20:59:36.294Z,27.70
2018-06-23T21:02:04.724Z,27.40
2018-06-23T21:04:32.900Z,26.80
2018-06-23T21:07:01.019Z,26.70
2018-06-23T21:09:29.131Z,26.70
2018-06-23T21:11:57.391Z,27.20
2018-06-23T21:14:26.712Z,27.00
2018-06-23T21:16:54.851Z,26.10
2018-06-23T21:19:23.746Z,26.60
2018-06-23T21:21:53.063Z,26.60
2018-06-23T21:24:21.170Z,26.20
2018-06-23T21:26:50.246Z,26.30
2018-06-23T21:29:18.363Z,26.40
2018-06-23T21:31:47.034Z,27.10
2018-06-23T21:35:38.342Z,27.10
2018-06-23T21:38:07.467Z,26.60
2018-06-23T21:40:38.047Z,27.10
2018-06-23T21:43:08.275Z,27.30
2018-06-23T21:45:37.384Z,26.90
2018-06-23T21:48:08.076Z,27.10
2018-06-23T21:50:36.202Z,27.10
2018-06-23T21:53:05.188Z,27.40
2018-06-23T21:55:33.305Z,27.60
2018-06-23T21:58:01.594Z,27.70
2018-06-23T22:00:30.051Z,27.70
2018-06-23T22:02:59.231Z,28.90
2018-06-23T22:05:28.302Z,28.90
2018-06-23T22:07:57.090Z,29.10
2018-06-23T22:10:25.894Z,28.70
2018-06-23T22:12:55.189Z,29.00
2018-06-23T22:15:23.523Z,28.50
2018-06-23T22:17:52.599Z,28.50
2018-06-23T22:20:20.725Z,28.50
2018-06-23T22:22:48.839Z,28.80
2018-06-23T22:25:17.728Z,29.40
2018-06-23T22:27:45.851Z,29.40
2018-06-23T22:30:13.971Z,29.30
2018-06-23T22:32:43.499Z,32.00
2018-06-23T22:35:12.434Z,32.10
2018-06-23T22:37:40.553Z,32.00
2018-06-23T22:40:08.674Z,32.50
2018-06-23T22:42:38.195Z,33.30
2018-06-23T22:45:06.903Z,33.40
2018-06-23T22:47:35.788Z,34.20
2018-06-23T22:50:04.762Z,34.70
2018-06-23T22:52:32.904Z,34.70
2018-06-23T22:55:03.861Z,35.50
2018-06-23T22:57:32.152Z,34.70
2018-06-23T23:00:01.021Z,35.10
2018-06-23T23:02:29.122Z,34.40
2018-06-23T23:05:00.062Z,34.90
2018-06-23T23:07:28.235Z,35.60
2018-06-23T23:09:56.428Z,35.70
2018-06-23T23:12:24.689Z,34.80
2018-06-23T23:14:52.857Z,33.30
2018-06-23T23:17:20.964Z,32.90
2018-06-23T23:19:49.832Z,33.90
2018-06-23T23:22:20.003Z,34.70
2018-06-23T23:24:50.891Z,34.60
2018-06-23T23:27:19.033Z,33.90
2018-06-23T23:29:47.120Z,34.30
2018-06-23T23:32:15.650Z,35.50
2018-06-23T23:34:44.036Z,34.60
2018-06-23T23:37:12.135Z,35.60
2018-06-23T23:39:40.238Z,34.40
2018-06-23T23:42:09.190Z,34.30
2018-06-23T23:44:39.008Z,34.50
2018-06-23T23:47:07.238Z,33.70
2018-06-23T23:49:35.341Z,34.00
2018-06-23T23:52:03.482Z,34.50
2018-06-23T23:54:33.697Z,36.90
2018-06-23T23:57:01.790Z,36.80
2018-06-23T23:59:29.896Z,37.80
